Terminal Aerodrome Forecast
Issued by NWS

Home | Current Version | Previous Version | Text Only | Print | Product List | Glossary On
Versions: 1 2 3 4 5 6 7 8 9 10 11 12 13 14 15 16 17
680
FTUS43 KILX 122013 AAA
TAFDEC
TAF AMD
KDEC 122013Z 1220/1318 31018G25KT P6SM VCSH SCT020 BKN035
      TEMPO 1222/1224 SCT025
     FM130000 31015G20KT P6SM SCT035
     FM130700 33010KT P6SM SCT250
     FM131200 33007KT P6SM SCT250=

USA.gov is the U.S. government's official web portal to all federal, state and local government web resources and services.